createdAt,value
2017-08-30T00:00:14.941Z,66.6
2017-08-30T00:00:41.054Z,66.69
2017-08-30T00:01:07.172Z,66.3
2017-08-30T00:01:33.280Z,66.3
2017-08-30T00:01:59.400Z,66.69
2017-08-30T00:02:25.620Z,66.5
2017-08-30T00:02:51.733Z,66.6
2017-08-30T00:03:17.846Z,66.3
2017-08-30T00:03:43.963Z,66.69
2017-08-30T00:04:10.076Z,66.69
2017-08-30T00:04:36.184Z,66.6
2017-08-30T00:05:02.295Z,66.5
2017-08-30T00:05:28.405Z,66.5
2017-08-30T00:05:54.517Z,66.69
2017-08-30T00:06:20.632Z,66.3
2017-08-30T00:06:46.747Z,66.2
2017-08-30T00:07:12.863Z,66.2
2017-08-30T00:07:38.966Z,66.3
2017-08-30T00:08:05.085Z,66.5
2017-08-30T00:08:31.195Z,66.78
2017-08-30T00:08:57.297Z,66.6
2017-08-30T00:09:23.402Z,66.78
2017-08-30T00:09:55.784Z,66.56
2017-08-30T00:10:21.897Z,66.6
2017-08-30T00:10:48.005Z,66.47
2017-08-30T00:11:14.112Z,66.69
2017-08-30T00:11:40.244Z,66.75
2017-08-30T00:12:06.366Z,67.05
2017-08-30T00:12:32.475Z,66.95
2017-08-30T00:12:58.587Z,67.43
2017-08-30T00:13:24.693Z,66.85
2017-08-30T00:13:50.808Z,67.14
2017-08-30T00:14:16.917Z,67.05
2017-08-30T00:14:43.025Z,67.14
2017-08-30T00:15:09.141Z,67.24
2017-08-30T00:15:35.254Z,66.6
2017-08-30T00:16:01.362Z,66.6
2017-08-30T00:16:27.476Z,66.69
2017-08-30T00:16:53.587Z,66.6
2017-08-30T00:17:19.699Z,66.78
2017-08-30T00:17:45.805Z,66.6
2017-08-30T00:18:11.917Z,66.6
2017-08-30T00:18:38.031Z,66.6
2017-08-30T00:19:04.142Z,66.69
2017-08-30T00:19:30.257Z,66.6
2017-08-30T00:19:56.383Z,66.47
2017-08-30T00:20:22.491Z,66.69
2017-08-30T00:20:48.604Z,66.66
2017-08-30T00:21:14.718Z,66.27
2017-08-30T00:21:40.830Z,66.56
2017-08-30T00:22:06.963Z,66.5
2017-08-30T00:22:33.074Z,66.5
2017-08-30T00:22:59.179Z,66.6
2017-08-30T00:23:25.289Z,66.5
2017-08-30T00:23:51.397Z,66.37
2017-08-30T00:24:17.506Z,66.37
2017-08-30T00:24:43.628Z,66.37
2017-08-30T00:25:09.738Z,66.69
2017-08-30T00:25:35.847Z,66.5
2017-08-30T00:26:01.964Z,66.69
2017-08-30T00:26:28.072Z,66.3
2017-08-30T00:26:54.186Z,66.6
2017-08-30T00:27:20.314Z,66.69
2017-08-30T00:27:46.420Z,66.02
2017-08-30T00:28:12.544Z,66.78
2017-08-30T00:28:38.653Z,66.6
2017-08-30T00:29:04.770Z,66.69
2017-08-30T00:29:30.886Z,66.78
2017-08-30T00:29:56.990Z,66.4
2017-08-30T00:30:23.104Z,66.2
2017-08-30T00:30:49.208Z,66.4
2017-08-30T00:31:15.325Z,66.5
2017-08-30T00:31:41.434Z,66.4
2017-08-30T00:32:07.554Z,66.2
2017-08-30T00:32:33.674Z,65.92
2017-08-30T00:32:59.781Z,66.2
2017-08-30T00:33:25.898Z,66.11
2017-08-30T00:33:52.005Z,65.53
2017-08-30T00:34:18.118Z,65.63
2017-08-30T00:34:44.224Z,66.02
2017-08-30T00:35:10.339Z,66.02
2017-08-30T00:35:36.452Z,66.2
2017-08-30T00:36:02.558Z,66.11
2017-08-30T00:36:28.676Z,66.2
2017-08-30T00:36:54.785Z,66.69
2017-08-30T00:37:20.893Z,66.66
2017-08-30T00:37:47.010Z,67.05
2017-08-30T00:38:13.119Z,66.85
2017-08-30T00:38:39.237Z,66.66
2017-08-30T00:39:05.346Z,67.05
2017-08-30T00:39:31.452Z,67.05
2017-08-30T00:39:57.560Z,67.43
2017-08-30T00:40:23.678Z,66.75
2017-08-30T00:40:49.791Z,67.24
2017-08-30T00:41:15.900Z,66.95
2017-08-30T00:41:42.012Z,67.14
2017-08-30T00:42:08.125Z,66.95
2017-08-30T00:42:34.252Z,67.05
2017-08-30T00:43:00.370Z,67.14
2017-08-30T00:43:26.501Z,66.95
2017-08-30T00:43:52.616Z,66.95
2017-08-30T00:44:18.732Z,67.43
2017-08-30T00:44:44.841Z,67.43
2017-08-30T00:45:10.952Z,67.05
2017-08-30T00:45:37.062Z,66.95
2017-08-30T00:46:03.187Z,67.14
2017-08-30T00:46:29.299Z,66.95
2017-08-30T00:46:55.404Z,67.14
2017-08-30T00:47:21.515Z,66.95
2017-08-30T00:47:47.624Z,67.24
2017-08-30T00:48:13.743Z,67.05
2017-08-30T00:48:39.850Z,66.85
2017-08-30T00:49:05.965Z,66.85
2017-08-30T00:49:32.081Z,66.66
2017-08-30T00:49:58.192Z,67.24
2017-08-30T00:50:24.303Z,67.14
2017-08-30T00:50:50.411Z,67.14
2017-08-30T00:51:16.529Z,66.56
2017-08-30T00:51:42.654Z,66.37
2017-08-30T00:52:08.762Z,66.56
2017-08-30T00:52:34.877Z,66.66
2017-08-30T00:53:00.996Z,66.85
2017-08-30T00:53:27.110Z,66.95
2017-08-30T00:53:53.222Z,67.14
2017-08-30T00:54:19.327Z,67.14
2017-08-30T00:54:45.438Z,67.05
2017-08-30T00:55:11.544Z,67.05
2017-08-30T00:55:37.659Z,67.14
2017-08-30T00:56:03.787Z,67.14
2017-08-30T00:56:29.897Z,67.24
2017-08-30T00:56:56.004Z,66.75
2017-08-30T00:57:22.119Z,67.33
2017-08-30T00:57:48.226Z,67.43
2017-08-30T00:58:14.336Z,66.85
2017-08-30T00:58:40.450Z,66.95
2017-08-30T00:59:06.566Z,67.05
2017-08-30T00:59:32.672Z,67.14
2017-08-30T00:59:58.784Z,67.24
2017-08-30T01:00:24.917Z,67.24
2017-08-30T01:00:51.024Z,67.33
2017-08-30T01:01:17.135Z,66.95
2017-08-30T01:01:43.248Z,67.14
2017-08-30T01:02:09.355Z,67.14
2017-08-30T01:02:35.482Z,66.66
2017-08-30T01:03:01.589Z,66.75
2017-08-30T01:03:27.703Z,67.14
2017-08-30T01:03:53.809Z,67.33
2017-08-30T01:04:19.919Z,67.24
2017-08-30T01:04:46.035Z,67.24
2017-08-30T01:05:12.141Z,67.14
2017-08-30T01:05:38.256Z,67.33
2017-08-30T01:06:04.371Z,67.14
2017-08-30T01:06:30.479Z,66.75
2017-08-30T01:06:56.596Z,66.75
2017-08-30T01:07:22.701Z,66.85
2017-08-30T01:07:48.809Z,66.66
2017-08-30T01:08:14.920Z,66.5
2017-08-30T01:08:41.028Z,66.85
2017-08-30T01:09:07.147Z,66.37
2017-08-30T01:09:33.249Z,66.47
2017-08-30T01:09:59.366Z,66.95
2017-08-30T01:10:25.472Z,66.56
2017-08-30T01:10:51.583Z,66.66
2017-08-30T01:11:17.698Z,67.14
2017-08-30T01:11:43.807Z,67.33
2017-08-30T01:12:09.923Z,67.24
2017-08-30T01:12:36.035Z,66.95
2017-08-30T01:13:02.149Z,66.95
2017-08-30T01:13:28.276Z,66.95
2017-08-30T01:13:54.381Z,67.05
2017-08-30T01:14:20.495Z,67.24
2017-08-30T01:14:46.598Z,67.05
2017-08-30T01:15:12.715Z,66.95
2017-08-30T01:15:38.829Z,67.24
2017-08-30T01:16:04.939Z,67.72
2017-08-30T01:16:31.056Z,67.63
2017-08-30T01:16:57.162Z,67.14
2017-08-30T01:17:23.267Z,67.05
2017-08-30T01:17:49.377Z,67.05
2017-08-30T01:18:15.487Z,66.95
2017-08-30T01:18:41.603Z,67.24
2017-08-30T01:19:07.728Z,66.85
2017-08-30T01:19:33.843Z,67.24
2017-08-30T01:19:59.956Z,66.47
2017-08-30T01:20:26.063Z,67.14
2017-08-30T01:20:52.179Z,66.85
2017-08-30T01:21:18.286Z,66.75
2017-08-30T01:21:44.402Z,66.85
2017-08-30T01:22:10.508Z,66.66
2017-08-30T01:22:36.618Z,67.05
2017-08-30T01:23:02.731Z,66.85
2017-08-30T01:23:28.839Z,67.33
2017-08-30T01:23:54.955Z,67.14
2017-08-30T01:24:21.062Z,67.24
2017-08-30T01:24:47.176Z,67.05
2017-08-30T01:25:13.281Z,67.24
2017-08-30T01:25:39.395Z,67.33
2017-08-30T01:26:05.501Z,67.14
2017-08-30T01:26:31.612Z,66.66
2017-08-30T01:26:57.728Z,66.75
2017-08-30T01:27:23.837Z,66.95
2017-08-30T01:27:49.948Z,67.05
2017-08-30T01:28:16.080Z,66.66
2017-08-30T01:28:42.193Z,67.05
2017-08-30T01:29:08.302Z,66.37
2017-08-30T01:29:34.415Z,66.85
2017-08-30T01:30:00.525Z,67.14
2017-08-30T01:30:26.643Z,67.14
2017-08-30T01:30:52.748Z,67.33
2017-08-30T01:31:18.855Z,67.33
2017-08-30T01:31:44.964Z,66.95
2017-08-30T01:32:11.073Z,66.47
2017-08-30T01:32:37.190Z,66.66
2017-08-30T01:33:03.295Z,66.47
2017-08-30T01:33:29.407Z,66.66
2017-08-30T01:33:55.513Z,66.75
2017-08-30T01:34:21.625Z,66.75
2017-08-30T01:34:47.740Z,66.66
2017-08-30T01:35:13.845Z,66.66
2017-08-30T01:35:39.965Z,66.47
2017-08-30T01:36:06.067Z,66.95
2017-08-30T01:36:32.185Z,66.27
2017-08-30T01:36:58.295Z,66.75
2017-08-30T01:37:24.408Z,66.37
2017-08-30T01:37:50.528Z,66.37
2017-08-30T01:38:16.630Z,66.27
2017-08-30T01:38:42.736Z,66.75
2017-08-30T01:39:08.853Z,66.66
2017-08-30T01:39:34.962Z,66.85
2017-08-30T01:40:01.092Z,67.05
2017-08-30T01:40:27.201Z,66.66
2017-08-30T01:40:53.308Z,66.66
2017-08-30T01:41:19.423Z,66.56
2017-08-30T01:41:45.529Z,66.47
2017-08-30T01:42:11.645Z,66.66
2017-08-30T01:42:37.757Z,66.37
2017-08-30T01:43:03.864Z,66.47
2017-08-30T01:43:29.979Z,66.66
2017-08-30T01:43:56.085Z,66.85
2017-08-30T01:44:22.194Z,66.56
2017-08-30T01:44:48.308Z,66.37
2017-08-30T01:45:14.414Z,66.66
2017-08-30T01:45:40.536Z,66.47
2017-08-30T01:46:06.643Z,66.56
2017-08-30T01:46:32.752Z,66.27
2017-08-30T01:46:58.865Z,66.66
2017-08-30T01:47:24.972Z,66.66
2017-08-30T01:47:51.087Z,66.75
2017-08-30T01:48:17.193Z,66.17
2017-08-30T01:48:43.305Z,65.98
2017-08-30T01:49:09.421Z,66.66
2017-08-30T01:49:35.534Z,66.66
2017-08-30T01:50:01.645Z,66.66
2017-08-30T01:50:27.772Z,66.47
2017-08-30T01:50:53.898Z,66.47
2017-08-30T01:51:20.004Z,66.47
2017-08-30T01:51:46.119Z,66.75
2017-08-30T01:52:12.228Z,66.47
2017-08-30T01:52:38.341Z,66.75
2017-08-30T01:53:04.445Z,66.66
2017-08-30T01:53:30.563Z,66.37
2017-08-30T01:53:56.686Z,66.27
2017-08-30T01:54:22.777Z,66.37
2017-08-30T01:54:48.892Z,66.37
2017-08-30T01:55:14.995Z,66.66
2017-08-30T01:55:41.101Z,66.66
2017-08-30T01:56:07.214Z,66.66
2017-08-30T01:56:33.324Z,66.66
2017-08-30T01:56:59.441Z,66.56
2017-08-30T01:57:25.553Z,66.47
2017-08-30T01:57:51.656Z,66.66
2017-08-30T01:58:17.774Z,66.27
2017-08-30T01:58:43.882Z,66.66
2017-08-30T01:59:09.994Z,66.75
2017-08-30T01:59:36.104Z,66.85
2017-08-30T02:00:02.214Z,66.56
2017-08-30T02:00:28.339Z,66.75
2017-08-30T02:00:54.448Z,66.66
2017-08-30T02:01:20.558Z,66.66
2017-08-30T02:01:46.673Z,66.66
2017-08-30T02:02:12.783Z,66.75
2017-08-30T02:02:38.894Z,66.66
2017-08-30T02:03:05.011Z,66.56
2017-08-30T02:03:31.123Z,66.75
2017-08-30T02:03:57.230Z,66.66
2017-08-30T02:04:23.345Z,66.37
2017-08-30T02:04:49.454Z,66.08
2017-08-30T02:05:15.558Z,66.47
2017-08-30T02:05:41.674Z,66.47
2017-08-30T02:06:07.786Z,66.17
2017-08-30T02:06:33.892Z,65.59
2017-08-30T02:07:00.002Z,66.17
2017-08-30T02:07:26.116Z,66.27
2017-08-30T02:07:52.224Z,66.17
2017-08-30T02:08:18.339Z,66.37
2017-08-30T02:08:44.451Z,66.75
2017-08-30T02:09:10.558Z,66.47
2017-08-30T02:09:36.666Z,66.56
2017-08-30T02:10:02.781Z,66.56
2017-08-30T02:10:28.886Z,66.56
2017-08-30T02:10:54.997Z,66.47
2017-08-30T02:11:21.108Z,66.37
2017-08-30T02:11:47.219Z,66.75
2017-08-30T02:12:13.336Z,66.56
2017-08-30T02:12:39.441Z,66.95
2017-08-30T02:13:05.551Z,66.95
2017-08-30T02:13:31.666Z,66.95
2017-08-30T02:13:57.778Z,67.24
2017-08-30T02:14:23.879Z,67.05
2017-08-30T02:14:49.994Z,66.75
2017-08-30T02:15:16.096Z,66.56
2017-08-30T02:15:42.211Z,66.75
2017-08-30T02:16:08.338Z,66.17
2017-08-30T02:16:34.451Z,66.47
2017-08-30T02:17:00.567Z,66.08
2017-08-30T02:17:26.679Z,66.27
2017-08-30T02:17:52.787Z,66.37
2017-08-30T02:18:18.898Z,66.47
2017-08-30T02:18:45.017Z,66.47
2017-08-30T02:19:11.118Z,66.17
2017-08-30T02:19:37.231Z,66.56
2017-08-30T02:20:03.335Z,66.66
2017-08-30T02:20:29.444Z,66.37
2017-08-30T02:20:55.568Z,66.27
2017-08-30T02:21:21.688Z,66.47
2017-08-30T02:21:47.798Z,65.98
2017-08-30T02:22:13.909Z,65.82
2017-08-30T02:22:40.021Z,65.88
2017-08-30T02:23:06.123Z,65.69
2017-08-30T02:23:32.241Z,66.37
2017-08-30T02:23:58.365Z,66.6
2017-08-30T02:24:24.482Z,65.59
2017-08-30T02:24:50.588Z,65.53
2017-08-30T02:25:16.703Z,65.63
2017-08-30T02:25:42.813Z,65.63
2017-08-30T02:26:08.920Z,65.63
2017-08-30T02:26:35.035Z,65.59
2017-08-30T02:27:01.149Z,65.88
2017-08-30T02:27:27.254Z,66.17
2017-08-30T02:27:53.369Z,66.17
2017-08-30T02:28:19.478Z,66.08
2017-08-30T02:28:45.604Z,66.17
2017-08-30T02:29:11.715Z,66.17
2017-08-30T02:29:37.829Z,66.17
2017-08-30T02:30:03.936Z,66.37
2017-08-30T02:30:30.042Z,65.79
2017-08-30T02:30:56.159Z,66.27
2017-08-30T02:31:22.264Z,66.08
2017-08-30T02:31:48.397Z,66.17
2017-08-30T02:32:14.514Z,66.56
2017-08-30T02:32:40.618Z,66.47
2017-08-30T02:33:06.731Z,66.27
2017-08-30T02:33:32.852Z,66.27
2017-08-30T02:33:58.965Z,66.08
2017-08-30T02:34:25.070Z,65.88
2017-08-30T02:34:51.206Z,66.17
2017-08-30T02:35:17.316Z,65.69
2017-08-30T02:35:43.421Z,65.88
2017-08-30T02:36:09.535Z,65.59
2017-08-30T02:36:35.642Z,65.79
2017-08-30T02:37:01.761Z,65.88
2017-08-30T02:37:27.870Z,65.88
2017-08-30T02:37:53.980Z,66.08
2017-08-30T02:38:20.113Z,65.92
2017-08-30T02:38:46.223Z,66.02
2017-08-30T02:39:12.333Z,65.5
2017-08-30T02:39:38.442Z,65.59
2017-08-30T02:40:04.556Z,65.5
2017-08-30T02:40:30.653Z,65.43
2017-08-30T02:40:56.767Z,65.79
2017-08-30T02:41:22.873Z,65.43
2017-08-30T02:41:48.990Z,65.4
2017-08-30T02:42:15.098Z,65.3
2017-08-30T02:42:41.207Z,65.63
2017-08-30T02:43:07.321Z,65.4
2017-08-30T02:43:33.449Z,65.4
2017-08-30T02:43:59.565Z,65.98
2017-08-30T02:44:25.688Z,65.59
2017-08-30T02:44:51.798Z,66.17
2017-08-30T02:45:17.915Z,66.27
2017-08-30T02:45:44.021Z,66.08
2017-08-30T02:46:10.129Z,65.98
2017-08-30T02:46:36.255Z,65.98
2017-08-30T02:47:02.360Z,66.27
2017-08-30T02:47:28.480Z,66.66
2017-08-30T02:47:54.593Z,66.17
2017-08-30T02:48:20.716Z,66.37
2017-08-30T02:48:46.851Z,66.66
2017-08-30T02:49:12.957Z,66.75
2017-08-30T02:49:39.063Z,67.33
2017-08-30T02:50:05.184Z,66.95
2017-08-30T02:50:31.286Z,66.85
2017-08-30T02:50:57.421Z,67.01
2017-08-30T02:51:23.532Z,67.79
2017-08-30T02:51:49.641Z,67.3
2017-08-30T02:52:15.755Z,67.21
2017-08-30T02:52:41.862Z,67.59
2017-08-30T02:53:07.970Z,67.53
2017-08-30T02:53:34.085Z,67.14
2017-08-30T02:54:00.213Z,66.95
2017-08-30T02:54:26.318Z,67.24
2017-08-30T02:54:52.428Z,67.24
2017-08-30T02:55:18.543Z,67.05
2017-08-30T02:55:44.646Z,66.95
2017-08-30T02:56:10.760Z,67.14
2017-08-30T02:56:36.868Z,66.85
2017-08-30T02:57:02.981Z,67.24
2017-08-30T02:57:29.119Z,66.95
2017-08-30T02:57:55.224Z,66.56
2017-08-30T02:58:21.352Z,66.66
2017-08-30T02:58:47.467Z,66.75
2017-08-30T02:59:13.579Z,67.05
2017-08-30T02:59:39.680Z,67.14
2017-08-30T03:00:05.790Z,66.75
2017-08-30T03:00:31.900Z,66.66
2017-08-30T03:00:58.014Z,66.56
2017-08-30T03:01:24.124Z,67.05
2017-08-30T03:01:50.238Z,66.75
2017-08-30T03:02:16.354Z,66.75
2017-08-30T03:02:42.462Z,67.05
2017-08-30T03:03:08.573Z,67.43
2017-08-30T03:03:34.685Z,67.11
2017-08-30T03:04:00.788Z,67.05
2017-08-30T03:04:26.902Z,67.21
2017-08-30T03:04:53.016Z,67.59
2017-08-30T03:05:19.119Z,67.49
2017-08-30T03:05:45.230Z,67.59
2017-08-30T03:06:11.340Z,67.49
2017-08-30T03:06:37.457Z,67.05
2017-08-30T03:07:03.566Z,67.14
2017-08-30T03:07:29.676Z,67.01
2017-08-30T03:07:55.807Z,67.43
2017-08-30T03:08:21.912Z,66.95
2017-08-30T03:08:48.028Z,66.47
2017-08-30T03:09:14.133Z,66.56
2017-08-30T03:09:40.244Z,66.85
2017-08-30T03:10:06.355Z,66.47
2017-08-30T03:10:32.468Z,66.66
2017-08-30T03:10:58.580Z,66.66
2017-08-30T03:11:24.697Z,66.75
2017-08-30T03:11:50.800Z,66.47
2017-08-30T03:12:16.914Z,66.75
2017-08-30T03:12:43.024Z,66.66
2017-08-30T03:13:09.136Z,66.47
2017-08-30T03:13:35.248Z,66.17
2017-08-30T03:14:01.355Z,66.27
2017-08-30T03:14:27.467Z,66.08
2017-08-30T03:14:53.574Z,66.08
2017-08-30T03:15:19.683Z,66.66
2017-08-30T03:15:45.795Z,66.08
2017-08-30T03:16:11.899Z,66.08
2017-08-30T03:16:38.005Z,66.37
2017-08-30T03:17:04.114Z,66.17
2017-08-30T03:17:30.227Z,65.98
2017-08-30T03:17:56.345Z,66.66
2017-08-30T03:18:22.461Z,66.66
2017-08-30T03:18:48.564Z,66.66
2017-08-30T03:19:14.669Z,66.56
2017-08-30T03:19:40.804Z,66.66
2017-08-30T03:20:06.910Z,66.66
2017-08-30T03:20:33.027Z,66.75
2017-08-30T03:20:59.134Z,67.24
2017-08-30T03:21:25.244Z,67.21
2017-08-30T03:21:51.359Z,67.11
2017-08-30T03:22:17.462Z,67.4
2017-08-30T03:22:43.576Z,67.01
2017-08-30T03:23:09.688Z,67.01
2017-08-30T03:23:35.790Z,67.24
2017-08-30T03:24:01.907Z,67.24
2017-08-30T03:24:28.019Z,67.43
2017-08-30T03:24:54.125Z,67.05
2017-08-30T03:25:20.232Z,67.14
2017-08-30T03:25:46.349Z,66.95
2017-08-30T03:26:12.456Z,66.47
2017-08-30T03:26:38.572Z,66.75
2017-08-30T03:27:04.684Z,66.75
2017-08-30T03:27:30.794Z,66.47
2017-08-30T03:27:56.902Z,66.37
2017-08-30T03:28:23.014Z,66.17
2017-08-30T03:28:49.131Z,66.37
2017-08-30T03:29:15.254Z,66.17
2017-08-30T03:29:41.370Z,66.08
2017-08-30T03:30:07.477Z,66.08
2017-08-30T03:30:33.591Z,66.85
2017-08-30T03:30:59.700Z,66.75
2017-08-30T03:31:25.806Z,66.37
2017-08-30T03:31:51.919Z,66.56
2017-08-30T03:32:18.034Z,66.66
2017-08-30T03:32:44.141Z,66.75
2017-08-30T03:33:10.255Z,66.37
2017-08-30T03:33:36.362Z,66.17
2017-08-30T03:34:02.469Z,65.98
2017-08-30T03:34:28.601Z,65.88
2017-08-30T03:34:54.711Z,66.08
2017-08-30T03:35:20.823Z,66.37
2017-08-30T03:35:46.933Z,66.37
2017-08-30T03:36:13.043Z,66.17
2017-08-30T03:36:39.149Z,66.08
2017-08-30T03:37:05.265Z,66.3
2017-08-30T03:37:31.395Z,65.63
2017-08-30T03:37:57.512Z,65.72
2017-08-30T03:38:23.621Z,65.53
2017-08-30T03:38:49.736Z,65.63
2017-08-30T03:39:15.842Z,65.34
2017-08-30T03:39:41.958Z,66.02
2017-08-30T03:40:08.062Z,65.82
2017-08-30T03:40:34.175Z,66.02
2017-08-30T03:41:00.289Z,65.72
2017-08-30T03:41:26.402Z,65.24
2017-08-30T03:41:52.514Z,65.14
2017-08-30T03:42:18.626Z,65.14
2017-08-30T03:42:44.741Z,65.5
2017-08-30T03:43:10.851Z,64.92
2017-08-30T03:43:36.960Z,65.82
2017-08-30T03:44:03.066Z,65.4
2017-08-30T03:44:29.184Z,65.5
2017-08-30T03:44:55.291Z,65.92
2017-08-30T03:45:21.398Z,65.92
2017-08-30T03:45:47.510Z,65.92
2017-08-30T03:46:13.625Z,65.88
2017-08-30T03:46:39.731Z,65.59
2017-08-30T03:47:05.838Z,65.4
2017-08-30T03:47:31.951Z,65.59
2017-08-30T03:47:58.058Z,65.79
2017-08-30T03:48:24.169Z,65.4
2017-08-30T03:48:50.289Z,66.08
2017-08-30T03:49:16.391Z,65.5
2017-08-30T03:49:42.504Z,65.53
2017-08-30T03:50:08.618Z,65.4
2017-08-30T03:50:34.746Z,65.43
2017-08-30T03:51:00.838Z,65.53
2017-08-30T03:51:26.944Z,65.72
2017-08-30T03:51:53.056Z,65.59
2017-08-30T03:52:19.171Z,65.53
2017-08-30T03:52:45.277Z,65.92
2017-08-30T03:53:11.387Z,65.88
2017-08-30T03:53:37.501Z,65.59
2017-08-30T03:54:03.613Z,65.79
2017-08-30T03:54:29.716Z,65.4
2017-08-30T03:54:55.836Z,66.17
2017-08-30T03:55:21.944Z,66.08
2017-08-30T03:55:48.061Z,66.27
2017-08-30T03:56:14.166Z,66.27
2017-08-30T03:56:40.285Z,65.88
2017-08-30T03:57:06.392Z,66.17
2017-08-30T03:57:32.506Z,66.08
2017-08-30T03:57:58.629Z,66.17
2017-08-30T03:58:24.749Z,66.95
2017-08-30T03:58:50.851Z,66.75
2017-08-30T03:59:16.956Z,66.47
2017-08-30T03:59:43.068Z,66.47
2017-08-30T04:00:09.174Z,66.37
2017-08-30T04:00:35.280Z,66.75
2017-08-30T04:01:01.397Z,66.56
2017-08-30T04:01:27.502Z,66.66
2017-08-30T04:01:53.620Z,66.37
2017-08-30T04:02:19.729Z,66.37
2017-08-30T04:02:45.839Z,66.37
2017-08-30T04:03:11.970Z,66.75
2017-08-30T04:03:38.082Z,67.14
2017-08-30T04:04:04.186Z,67.05
2017-08-30T04:04:30.297Z,67.05
2017-08-30T04:04:56.413Z,67.53
2017-08-30T04:05:22.520Z,67.49
2017-08-30T04:05:48.628Z,67.49
2017-08-30T04:06:14.742Z,68.08
2017-08-30T04:06:40.849Z,68.17
2017-08-30T04:07:06.959Z,68.27
2017-08-30T04:07:33.074Z,68.66
2017-08-30T04:07:59.187Z,68.56
2017-08-30T04:08:25.292Z,69.14
2017-08-30T04:08:51.401Z,69.1
2017-08-30T04:09:17.554Z,69.01
2017-08-30T04:09:43.666Z,69.3
2017-08-30T04:10:09.776Z,69.59
2017-08-30T04:10:35.900Z,69.59
2017-08-30T04:11:02.014Z,69.78
2017-08-30T04:11:28.121Z,70.07
2017-08-30T04:11:54.235Z,70.46
2017-08-30T04:12:20.347Z,70.07
2017-08-30T04:12:46.453Z,70.14
2017-08-30T04:13:12.588Z,70.62
2017-08-30T04:13:38.695Z,70.9
2017-08-30T04:14:04.810Z,70.81
2017-08-30T04:14:30.917Z,70.62
2017-08-30T04:14:57.030Z,70.72
2017-08-30T04:15:23.137Z,70.52
2017-08-30T04:15:49.244Z,70.81
2017-08-30T04:16:15.357Z,70.72
2017-08-30T04:16:41.462Z,70.56
2017-08-30T04:17:07.580Z,70.46
2017-08-30T04:17:33.690Z,70.46
2017-08-30T04:17:59.797Z,70.65
2017-08-30T04:18:25.908Z,70.26
2017-08-30T04:18:52.038Z,69.78
2017-08-30T04:19:18.143Z,69.68
2017-08-30T04:19:44.258Z,69.98
2017-08-30T04:20:10.360Z,69.68
2017-08-30T04:20:36.468Z,69.82
2017-08-30T04:21:02.583Z,69.4
2017-08-30T04:21:28.705Z,69.72
2017-08-30T04:21:54.804Z,69.68
2017-08-30T04:22:20.918Z,69.59
2017-08-30T04:22:47.029Z,69.62
2017-08-30T04:23:13.137Z,70.01
2017-08-30T04:23:39.247Z,69.82
2017-08-30T04:24:05.357Z,69.62
2017-08-30T04:24:31.463Z,69.14
2017-08-30T04:24:57.579Z,69.62
2017-08-30T04:25:23.685Z,68.85
2017-08-30T04:25:49.810Z,68.75
2017-08-30T04:26:15.919Z,69.04
2017-08-30T04:26:42.025Z,69.04
2017-08-30T04:27:08.137Z,68.56
2017-08-30T04:27:34.251Z,68.56
2017-08-30T04:28:00.363Z,68.75
2017-08-30T04:28:26.468Z,68.46
2017-08-30T04:28:52.582Z,68.56
2017-08-30T04:29:18.692Z,68.95
2017-08-30T04:29:44.794Z,68.85
2017-08-30T04:30:10.909Z,68.46
2017-08-30T04:30:37.017Z,68.66
2017-08-30T04:31:03.132Z,68.85
2017-08-30T04:31:29.245Z,69.04
2017-08-30T04:31:55.350Z,68.95
2017-08-30T04:32:21.465Z,68.95
2017-08-30T04:32:47.570Z,69.04
2017-08-30T04:33:13.680Z,69.14
2017-08-30T04:33:39.796Z,68.46
2017-08-30T04:34:05.906Z,68.66
2017-08-30T04:34:32.012Z,68.66
2017-08-30T04:34:58.120Z,68.75
2017-08-30T04:35:24.235Z,68.95
2017-08-30T04:35:50.345Z,68.85
2017-08-30T04:36:16.474Z,68.75
2017-08-30T04:36:42.588Z,69.14
2017-08-30T04:37:08.710Z,69.04
2017-08-30T04:37:34.825Z,68.85
2017-08-30T04:38:00.929Z,69.24
2017-08-30T04:38:27.038Z,68.95
2017-08-30T04:38:53.152Z,68.95
2017-08-30T04:39:19.258Z,68.95
2017-08-30T04:39:45.373Z,69.04
2017-08-30T04:40:11.480Z,69.43
2017-08-30T04:40:37.592Z,69.33
2017-08-30T04:41:03.713Z,68.95
2017-08-30T04:41:29.822Z,69.04
2017-08-30T04:41:55.926Z,69.24
2017-08-30T04:42:22.034Z,68.66
2017-08-30T04:42:48.146Z,69.04
2017-08-30T04:43:14.250Z,69.14
2017-08-30T04:43:40.366Z,69.82
2017-08-30T04:44:06.475Z,69.53
2017-08-30T04:44:32.587Z,70.01
2017-08-30T04:44:58.689Z,69.53
2017-08-30T04:45:24.799Z,69.82
2017-08-30T04:45:50.931Z,69.88
2017-08-30T04:46:17.045Z,69.78
2017-08-30T04:46:43.156Z,70.36
2017-08-30T04:47:09.272Z,70.17
2017-08-30T04:47:35.380Z,70.36
2017-08-30T04:48:01.479Z,70.68
2017-08-30T04:48:27.593Z,70.07
2017-08-30T04:48:53.707Z,70.17
2017-08-30T04:49:19.815Z,70.07
2017-08-30T04:49:45.920Z,70.4
2017-08-30T04:50:12.035Z,70.07
2017-08-30T04:50:38.140Z,70.2
2017-08-30T04:51:04.254Z,70.2
2017-08-30T04:51:30.365Z,70.56
2017-08-30T04:51:56.471Z,70.36
2017-08-30T04:52:22.588Z,70.56
2017-08-30T04:52:48.693Z,71.14
2017-08-30T04:53:14.803Z,70.65
2017-08-30T04:53:40.919Z,71.04
2017-08-30T04:54:07.026Z,70.94
2017-08-30T04:54:33.143Z,70.65
2017-08-30T04:54:59.254Z,70.65
2017-08-30T04:55:25.360Z,70.75
2017-08-30T04:55:51.468Z,71.52
2017-08-30T04:56:17.584Z,71.23
2017-08-30T04:56:43.695Z,71.33
2017-08-30T04:57:09.801Z,71.52
2017-08-30T04:57:35.917Z,71.33
2017-08-30T04:58:02.024Z,71.52
2017-08-30T04:58:28.129Z,71.62
2017-08-30T04:58:54.245Z,70.84
2017-08-30T04:59:20.370Z,71.04
2017-08-30T04:59:46.483Z,71.04
2017-08-30T05:00:12.595Z,70.65
2017-08-30T05:00:38.698Z,70.65
2017-08-30T05:01:04.816Z,70.75
2017-08-30T05:01:30.925Z,70.46
2017-08-30T05:01:57.026Z,70.65
2017-08-30T05:02:23.138Z,70.75
2017-08-30T05:02:49.253Z,70.59
2017-08-30T05:03:15.363Z,70.65
2017-08-30T05:03:41.468Z,70.84
2017-08-30T05:04:07.584Z,71.72
2017-08-30T05:04:33.694Z,71.52
2017-08-30T05:04:59.806Z,71.33
2017-08-30T05:05:25.911Z,71.81
2017-08-30T05:05:52.031Z,71.72
2017-08-30T05:06:18.146Z,71.91
2017-08-30T05:06:44.249Z,71.52
2017-08-30T05:07:10.360Z,71.81
2017-08-30T05:07:36.484Z,71.81
2017-08-30T05:08:02.596Z,71.42
2017-08-30T05:08:28.701Z,71.91
2017-08-30T05:08:54.809Z,71.62
2017-08-30T05:09:20.925Z,71.81
2017-08-30T05:09:47.034Z,71.42
2017-08-30T05:10:13.147Z,71.62
2017-08-30T05:10:39.254Z,71.91
2017-08-30T05:11:05.360Z,71.42
2017-08-30T05:11:31.474Z,71.23
2017-08-30T05:11:57.588Z,71.33
2017-08-30T05:12:23.694Z,71.33
2017-08-30T05:12:49.810Z,71.23
2017-08-30T05:13:15.915Z,71.33
2017-08-30T05:13:42.029Z,71.72
2017-08-30T05:14:08.140Z,71.52
2017-08-30T05:14:34.245Z,71.23
2017-08-30T05:15:00.367Z,71.72
2017-08-30T05:15:26.469Z,71.52
2017-08-30T05:15:52.582Z,71.62
2017-08-30T05:16:18.707Z,71.91
2017-08-30T05:16:44.839Z,71.81
2017-08-30T05:17:10.944Z,71.78
2017-08-30T05:17:37.053Z,72.26
2017-08-30T05:18:03.167Z,72.16
2017-08-30T05:18:29.274Z,71.97
2017-08-30T05:18:55.387Z,72.36
2017-08-30T05:19:21.492Z,72.45
2017-08-30T05:19:47.610Z,72.94
2017-08-30T05:20:13.717Z,73.22
2017-08-30T05:20:39.831Z,73.03
2017-08-30T05:21:05.941Z,73.42
2017-08-30T05:21:32.048Z,72.64
2017-08-30T05:21:58.157Z,72.55
2017-08-30T05:22:24.269Z,73.09
2017-08-30T05:22:50.385Z,73.28
2017-08-30T05:23:16.491Z,73.77
2017-08-30T05:23:42.598Z,73.67
2017-08-30T05:24:08.714Z,73.96
2017-08-30T05:24:34.821Z,74.06
2017-08-30T05:25:00.933Z,73.96
2017-08-30T05:25:27.038Z,74.25
2017-08-30T05:25:53.156Z,74.54
2017-08-30T05:26:19.273Z,74.64
2017-08-30T05:26:45.376Z,74.44
2017-08-30T05:27:11.485Z,74.54
2017-08-30T05:27:37.595Z,74.93
2017-08-30T05:28:03.705Z,74.93
2017-08-30T05:28:29.811Z,75.02
2017-08-30T05:28:55.925Z,74.64
2017-08-30T05:29:22.036Z,74.54
2017-08-30T05:29:48.141Z,75.09
2017-08-30T05:30:14.249Z,75.27
2017-08-30T05:30:40.367Z,75.27
2017-08-30T05:31:06.474Z,74.89
2017-08-30T05:31:32.591Z,75.18
2017-08-30T05:31:58.702Z,74.79
2017-08-30T05:32:24.813Z,74.69
2017-08-30T05:32:50.921Z,74.79
2017-08-30T05:33:17.031Z,75.67
2017-08-30T05:33:43.144Z,75.57
2017-08-30T05:34:09.257Z,75.47
2017-08-30T05:34:35.389Z,75.67
2017-08-30T05:35:01.498Z,75.41
2017-08-30T05:35:27.605Z,75.22
2017-08-30T05:35:53.712Z,75.22
2017-08-30T05:36:19.842Z,74.93
2017-08-30T05:36:45.952Z,75.02
2017-08-30T05:37:12.099Z,75.02